sensor_id;sensor_type;location;lat;lon;timestamp;P1;durP1;ratioP1;P2;durP2;ratioP2
12155;SDS011;6141;49.092;8.516;2023-05-20T00:01:04;5.20;;;3.40;;
12155;SDS011;6141;49.092;8.516;2023-05-20T00:03:53;5.63;;;2.97;;
12155;SDS011;6141;49.092;8.516;2023-05-20T00:06:42;6.93;;;3.17;;
12155;SDS011;6141;49.092;8.516;2023-05-20T00:09:31;4.03;;;3.03;;
12155;SDS011;6141;49.092;8.516;2023-05-20T00:12:20;4.30;;;2.80;;
12155;SDS011;6141;49.092;8.516;2023-05-20T00:15:08;5.33;;;3.50;;
12155;SDS011;6141;49.092;8.516;2023-05-20T00:18:00;3.60;;;3.03;;
12155;SDS011;6141;49.092;8.516;2023-05-20T00:20:50;5.10;;;3.33;;
12155;SDS011;6141;49.092;8.516;2023-05-20T00:23:40;4.03;;;3.30;;
12155;SDS011;6141;49.092;8.516;2023-05-20T00:26:29;4.17;;;3.10;;
12155;SDS011;6141;49.092;8.516;2023-05-20T00:29:18;3.97;;;3.07;;
12155;SDS011;6141;49.092;8.516;2023-05-20T00:32:08;5.10;;;2.97;;
12155;SDS011;6141;49.092;8.516;2023-05-20T00:34:58;5.20;;;2.80;;
12155;SDS011;6141;49.092;8.516;2023-05-20T00:37:50;3.60;;;3.00;;
12155;SDS011;6141;49.092;8.516;2023-05-20T00:40:40;4.57;;;3.10;;
12155;SDS011;6141;49.092;8.516;2023-05-20T00:43:29;3.57;;;2.83;;
12155;SDS011;6141;49.092;8.516;2023-05-20T00:46:17;3.10;;;2.37;;
12155;SDS011;6141;49.092;8.516;2023-05-20T00:49:06;5.30;;;3.07;;
12155;SDS011;6141;49.092;8.516;2023-05-20T00:51:56;3.00;;;2.33;;
12155;SDS011;6141;49.092;8.516;2023-05-20T00:54:46;4.20;;;2.90;;
12155;SDS011;6141;49.092;8.516;2023-05-20T00:57:36;2.90;;;2.60;;
12155;SDS011;6141;49.092;8.516;2023-05-20T01:00:26;5.50;;;2.87;;
12155;SDS011;6141;49.092;8.516;2023-05-20T01:03:14;3.57;;;2.93;;
12155;SDS011;6141;49.092;8.516;2023-05-20T01:06:05;3.77;;;2.83;;
12155;SDS011;6141;49.092;8.516;2023-05-20T01:08:55;4.13;;;2.80;;
12155;SDS011;6141;49.092;8.516;2023-05-20T01:11:47;4.80;;;2.80;;
12155;SDS011;6141;49.092;8.516;2023-05-20T01:14:42;3.47;;;2.83;;
12155;SDS011;6141;49.092;8.516;2023-05-20T01:17:38;6.50;;;3.07;;
12155;SDS011;6141;49.092;8.516;2023-05-20T01:20:31;2.83;;;2.50;;
12155;SDS011;6141;49.092;8.516;2023-05-20T01:23:22;4.27;;;2.80;;
12155;SDS011;6141;49.092;8.516;2023-05-20T01:26:17;3.03;;;2.53;;
12155;SDS011;6141;49.092;8.516;2023-05-20T01:29:07;5.70;;;2.80;;
12155;SDS011;6141;49.092;8.516;2023-05-20T01:32:03;3.77;;;2.53;;
12155;SDS011;6141;49.092;8.516;2023-05-20T01:34:54;3.30;;;2.40;;
12155;SDS011;6141;49.092;8.516;2023-05-20T01:37:44;3.37;;;2.77;;
12155;SDS011;6141;49.092;8.516;2023-05-20T01:40:37;2.47;;;2.27;;
12155;SDS011;6141;49.092;8.516;2023-05-20T01:43:28;3.77;;;2.80;;
12155;SDS011;6141;49.092;8.516;2023-05-20T01:46:17;3.53;;;2.60;;
12155;SDS011;6141;49.092;8.516;2023-05-20T01:49:09;3.17;;;2.80;;
12155;SDS011;6141;49.092;8.516;2023-05-20T01:52:00;3.10;;;2.50;;
12155;SDS011;6141;49.092;8.516;2023-05-20T01:54:49;3.90;;;2.63;;
12155;SDS011;6141;49.092;8.516;2023-05-20T01:57:39;5.03;;;2.80;;
12155;SDS011;6141;49.092;8.516;2023-05-20T02:00:29;3.00;;;2.70;;
12155;SDS011;6141;49.092;8.516;2023-05-20T02:03:19;4.13;;;2.97;;
12155;SDS011;6141;49.092;8.516;2023-05-20T02:06:08;4.40;;;2.67;;
12155;SDS011;6141;49.092;8.516;2023-05-20T02:08:57;6.63;;;3.00;;
12155;SDS011;6141;49.092;8.516;2023-05-20T02:11:47;4.00;;;2.73;;
12155;SDS011;6141;49.092;8.516;2023-05-20T02:14:37;3.63;;;2.67;;
12155;SDS011;6141;49.092;8.516;2023-05-20T02:17:26;3.90;;;2.30;;
12155;SDS011;6141;49.092;8.516;2023-05-20T02:20:26;3.10;;;2.20;;
12155;SDS011;6141;49.092;8.516;2023-05-20T02:23:15;4.83;;;2.60;;
12155;SDS011;6141;49.092;8.516;2023-05-20T02:26:09;3.37;;;2.60;;
12155;SDS011;6141;49.092;8.516;2023-05-20T02:28:58;6.50;;;2.60;;
12155;SDS011;6141;49.092;8.516;2023-05-20T02:31:48;4.73;;;2.60;;
12155;SDS011;6141;49.092;8.516;2023-05-20T02:34:37;3.07;;;2.53;;
12155;SDS011;6141;49.092;8.516;2023-05-20T02:37:26;2.63;;;2.40;;
12155;SDS011;6141;49.092;8.516;2023-05-20T02:40:16;3.00;;;2.30;;
12155;SDS011;6141;49.092;8.516;2023-05-20T02:43:04;3.13;;;2.60;;
12155;SDS011;6141;49.092;8.516;2023-05-20T02:45:53;3.17;;;2.63;;
12155;SDS011;6141;49.092;8.516;2023-05-20T02:48:44;4.43;;;2.87;;
12155;SDS011;6141;49.092;8.516;2023-05-20T02:51:32;3.17;;;2.57;;
12155;SDS011;6141;49.092;8.516;2023-05-20T02:54:21;3.00;;;2.70;;
12155;SDS011;6141;49.092;8.516;2023-05-20T02:57:10;3.93;;;3.23;;
12155;SDS011;6141;49.092;8.516;2023-05-20T02:59:59;3.10;;;2.67;;
12155;SDS011;6141;49.092;8.516;2023-05-20T03:02:48;3.93;;;2.53;;
12155;SDS011;6141;49.092;8.516;2023-05-20T03:05:38;3.63;;;2.80;;
12155;SDS011;6141;49.092;8.516;2023-05-20T03:08:28;6.77;;;2.90;;
12155;SDS011;6141;49.092;8.516;2023-05-20T03:11:17;2.80;;;2.60;;
12155;SDS011;6141;49.092;8.516;2023-05-20T03:14:07;3.87;;;2.53;;
12155;SDS011;6141;49.092;8.516;2023-05-20T03:16:56;3.13;;;2.50;;
12155;SDS011;6141;49.092;8.516;2023-05-20T03:19:46;2.70;;;2.50;;
12155;SDS011;6141;49.092;8.516;2023-05-20T03:22:36;4.00;;;2.43;;
12155;SDS011;6141;49.092;8.516;2023-05-20T03:25:27;4.60;;;2.60;;
12155;SDS011;6141;49.092;8.516;2023-05-20T03:28:17;4.90;;;2.50;;
12155;SDS011;6141;49.092;8.516;2023-05-20T03:31:06;4.10;;;2.50;;
12155;SDS011;6141;49.092;8.516;2023-05-20T03:33:54;2.80;;;2.43;;
12155;SDS011;6141;49.092;8.516;2023-05-20T03:36:43;5.20;;;3.30;;
12155;SDS011;6141;49.092;8.516;2023-05-20T03:39:34;3.60;;;2.80;;
12155;SDS011;6141;49.092;8.516;2023-05-20T03:42:23;3.83;;;2.60;;
12155;SDS011;6141;49.092;8.516;2023-05-20T03:45:11;3.67;;;3.30;;
12155;SDS011;6141;49.092;8.516;2023-05-20T03:48:10;4.13;;;3.10;;
12155;SDS011;6141;49.092;8.516;2023-05-20T03:50:59;6.30;;;3.40;;
12155;SDS011;6141;49.092;8.516;2023-05-20T03:53:49;5.67;;;3.30;;
12155;SDS011;6141;49.092;8.516;2023-05-20T03:56:39;4.37;;;3.20;;
12155;SDS011;6141;49.092;8.516;2023-05-20T03:59:28;6.07;;;3.10;;
12155;SDS011;6141;49.092;8.516;2023-05-20T04:02:17;3.40;;;3.10;;
12155;SDS011;6141;49.092;8.516;2023-05-20T04:05:07;7.30;;;3.27;;
12155;SDS011;6141;49.092;8.516;2023-05-20T04:07:58;4.90;;;3.50;;
12155;SDS011;6141;49.092;8.516;2023-05-20T04:10:47;5.13;;;3.43;;
12155;SDS011;6141;49.092;8.516;2023-05-20T04:13:37;14.23;;;3.67;;
12155;SDS011;6141;49.092;8.516;2023-05-20T04:16:26;4.23;;;3.50;;
12155;SDS011;6141;49.092;8.516;2023-05-20T04:19:20;3.50;;;3.20;;
12155;SDS011;6141;49.092;8.516;2023-05-20T04:22:10;5.87;;;3.37;;
12155;SDS011;6141;49.092;8.516;2023-05-20T04:24:59;4.40;;;2.90;;
12155;SDS011;6141;49.092;8.516;2023-05-20T04:27:49;4.10;;;3.57;;
12155;SDS011;6141;49.092;8.516;2023-05-20T04:30:41;3.87;;;3.10;;
12155;SDS011;6141;49.092;8.516;2023-05-20T04:33:32;5.53;;;3.57;;
12155;SDS011;6141;49.092;8.516;2023-05-20T04:36:24;5.23;;;2.90;;
12155;SDS011;6141;49.092;8.516;2023-05-20T04:39:14;4.90;;;3.40;;
12155;SDS011;6141;49.092;8.516;2023-05-20T04:42:04;6.23;;;3.37;;
12155;SDS011;6141;49.092;8.516;2023-05-20T04:44:53;7.57;;;3.13;;
12155;SDS011;6141;49.092;8.516;2023-05-20T04:47:44;4.87;;;3.20;;
12155;SDS011;6141;49.092;8.516;2023-05-20T04:50:33;6.57;;;3.50;;
12155;SDS011;6141;49.092;8.516;2023-05-20T04:53:25;3.40;;;3.10;;
12155;SDS011;6141;49.092;8.516;2023-05-20T04:56:13;4.57;;;3.20;;
12155;SDS011;6141;49.092;8.516;2023-05-20T04:59:03;7.17;;;3.67;;
12155;SDS011;6141;49.092;8.516;2023-05-20T05:01:52;3.97;;;3.13;;
12155;SDS011;6141;49.092;8.516;2023-05-20T05:04:43;5.40;;;2.97;;
12155;SDS011;6141;49.092;8.516;2023-05-20T05:07:32;6.20;;;3.27;;
12155;SDS011;6141;49.092;8.516;2023-05-20T05:10:21;6.50;;;3.47;;
12155;SDS011;6141;49.092;8.516;2023-05-20T05:13:12;5.00;;;3.33;;
12155;SDS011;6141;49.092;8.516;2023-05-20T05:16:02;4.27;;;2.90;;
12155;SDS011;6141;49.092;8.516;2023-05-20T05:18:51;3.37;;;2.97;;
12155;SDS011;6141;49.092;8.516;2023-05-20T05:21:42;4.47;;;3.43;;
12155;SDS011;6141;49.092;8.516;2023-05-20T05:24:32;4.43;;;3.20;;
12155;SDS011;6141;49.092;8.516;2023-05-20T05:27:21;5.40;;;3.50;;
12155;SDS011;6141;49.092;8.516;2023-05-20T05:30:10;4.80;;;3.30;;
12155;SDS011;6141;49.092;8.516;2023-05-20T05:32:59;4.73;;;3.23;;
12155;SDS011;6141;49.092;8.516;2023-05-20T05:35:48;4.00;;;3.00;;
12155;SDS011;6141;49.092;8.516;2023-05-20T05:38:39;4.43;;;3.00;;
12155;SDS011;6141;49.092;8.516;2023-05-20T05:41:28;5.33;;;3.50;;
12155;SDS011;6141;49.092;8.516;2023-05-20T05:44:18;4.93;;;3.07;;
12155;SDS011;6141;49.092;8.516;2023-05-20T05:47:08;4.23;;;2.80;;
12155;SDS011;6141;49.092;8.516;2023-05-20T05:49:57;4.17;;;2.67;;
12155;SDS011;6141;49.092;8.516;2023-05-20T05:52:49;3.80;;;2.90;;
12155;SDS011;6141;49.092;8.516;2023-05-20T05:55:39;3.80;;;3.33;;
12155;SDS011;6141;49.092;8.516;2023-05-20T05:58:28;3.20;;;2.83;;
12155;SDS011;6141;49.092;8.516;2023-05-20T06:01:17;3.47;;;2.90;;
12155;SDS011;6141;49.092;8.516;2023-05-20T06:04:06;5.53;;;3.60;;
12155;SDS011;6141;49.092;8.516;2023-05-20T06:06:55;3.37;;;2.97;;
12155;SDS011;6141;49.092;8.516;2023-05-20T06:09:44;3.80;;;3.10;;
12155;SDS011;6141;49.092;8.516;2023-05-20T06:12:34;4.37;;;3.23;;
12155;SDS011;6141;49.092;8.516;2023-05-20T06:15:23;4.87;;;3.33;;
12155;SDS011;6141;49.092;8.516;2023-05-20T06:18:13;4.47;;;2.83;;
12155;SDS011;6141;49.092;8.516;2023-05-20T06:21:01;5.60;;;3.37;;
12155;SDS011;6141;49.092;8.516;2023-05-20T06:23:51;6.57;;;3.33;;
12155;SDS011;6141;49.092;8.516;2023-05-20T06:26:40;5.27;;;3.23;;
12155;SDS011;6141;49.092;8.516;2023-05-20T06:29:33;3.80;;;2.80;;
12155;SDS011;6141;49.092;8.516;2023-05-20T06:32:21;4.87;;;3.47;;
12155;SDS011;6141;49.092;8.516;2023-05-20T06:35:12;4.67;;;3.20;;
12155;SDS011;6141;49.092;8.516;2023-05-20T06:38:01;4.90;;;3.57;;
12155;SDS011;6141;49.092;8.516;2023-05-20T06:40:50;3.90;;;3.30;;
12155;SDS011;6141;49.092;8.516;2023-05-20T06:43:41;3.43;;;3.13;;
12155;SDS011;6141;49.092;8.516;2023-05-20T06:46:52;3.63;;;3.00;;
12155;SDS011;6141;49.092;8.516;2023-05-20T06:49:41;4.37;;;3.27;;
12155;SDS011;6141;49.092;8.516;2023-05-20T06:52:34;3.67;;;3.33;;
12155;SDS011;6141;49.092;8.516;2023-05-20T06:55:23;7.23;;;3.60;;
12155;SDS011;6141;49.092;8.516;2023-05-20T06:58:12;4.63;;;3.43;;
12155;SDS011;6141;49.092;8.516;2023-05-20T07:01:02;5.27;;;3.40;;
12155;SDS011;6141;49.092;8.516;2023-05-20T07:03:53;4.03;;;3.20;;
12155;SDS011;6141;49.092;8.516;2023-05-20T07:06:43;4.30;;;3.30;;
12155;SDS011;6141;49.092;8.516;2023-05-20T07:09:32;3.97;;;3.37;;
12155;SDS011;6141;49.092;8.516;2023-05-20T07:12:24;4.67;;;3.40;;
12155;SDS011;6141;49.092;8.516;2023-05-20T07:15:14;4.63;;;3.70;;
12155;SDS011;6141;49.092;8.516;2023-05-20T07:18:03;3.80;;;3.40;;
12155;SDS011;6141;49.092;8.516;2023-05-20T07:20:54;5.03;;;3.47;;
12155;SDS011;6141;49.092;8.516;2023-05-20T07:24:02;4.03;;;3.20;;
12155;SDS011;6141;49.092;8.516;2023-05-20T07:26:52;4.60;;;3.60;;
12155;SDS011;6141;49.092;8.516;2023-05-20T07:29:41;4.80;;;3.40;;
12155;SDS011;6141;49.092;8.516;2023-05-20T07:32:30;4.13;;;3.40;;
12155;SDS011;6141;49.092;8.516;2023-05-20T07:35:19;3.60;;;3.30;;
12155;SDS011;6141;49.092;8.516;2023-05-20T07:38:11;4.20;;;3.63;;
12155;SDS011;6141;49.092;8.516;2023-05-20T07:41:02;5.37;;;3.60;;
12155;SDS011;6141;49.092;8.516;2023-05-20T07:43:51;6.43;;;3.80;;
12155;SDS011;6141;49.092;8.516;2023-05-20T07:46:42;5.10;;;4.00;;
12155;SDS011;6141;49.092;8.516;2023-05-20T07:49:31;4.97;;;4.00;;
12155;SDS011;6141;49.092;8.516;2023-05-20T07:52:22;4.07;;;3.67;;
12155;SDS011;6141;49.092;8.516;2023-05-20T07:55:12;4.73;;;3.90;;
12155;SDS011;6141;49.092;8.516;2023-05-20T07:58:02;4.77;;;3.80;;
12155;SDS011;6141;49.092;8.516;2023-05-20T08:00:53;4.50;;;4.07;;
12155;SDS011;6141;49.092;8.516;2023-05-20T08:03:42;4.77;;;4.00;;
12155;SDS011;6141;49.092;8.516;2023-05-20T08:06:34;4.97;;;4.37;;
12155;SDS011;6141;49.092;8.516;2023-05-20T08:09:29;4.07;;;3.70;;
12155;SDS011;6141;49.092;8.516;2023-05-20T08:12:20;5.97;;;4.47;;
12155;SDS011;6141;49.092;8.516;2023-05-20T08:15:10;4.90;;;3.87;;
12155;SDS011;6141;49.092;8.516;2023-05-20T08:17:59;4.30;;;3.90;;
12155;SDS011;6141;49.092;8.516;2023-05-20T08:20:48;5.67;;;4.07;;
12155;SDS011;6141;49.092;8.516;2023-05-20T08:23:37;5.40;;;4.07;;
12155;SDS011;6141;49.092;8.516;2023-05-20T08:26:26;5.83;;;3.90;;
12155;SDS011;6141;49.092;8.516;2023-05-20T08:29:17;6.20;;;3.57;;
12155;SDS011;6141;49.092;8.516;2023-05-20T08:32:07;4.33;;;3.90;;
12155;SDS011;6141;49.092;8.516;2023-05-20T08:34:56;5.63;;;4.23;;
12155;SDS011;6141;49.092;8.516;2023-05-20T08:37:47;5.00;;;3.90;;
12155;SDS011;6141;49.092;8.516;2023-05-20T08:40:36;6.77;;;3.43;;
12155;SDS011;6141;49.092;8.516;2023-05-20T08:43:26;4.40;;;3.97;;
12155;SDS011;6141;49.092;8.516;2023-05-20T08:46:18;4.33;;;3.60;;
12155;SDS011;6141;49.092;8.516;2023-05-20T08:49:10;4.47;;;4.07;;
12155;SDS011;6141;49.092;8.516;2023-05-20T08:52:00;6.03;;;4.03;;
12155;SDS011;6141;49.092;8.516;2023-05-20T08:54:49;4.63;;;3.87;;
12155;SDS011;6141;49.092;8.516;2023-05-20T08:57:40;4.03;;;3.63;;
12155;SDS011;6141;49.092;8.516;2023-05-20T09:00:31;4.20;;;3.80;;
12155;SDS011;6141;49.092;8.516;2023-05-20T09:03:23;4.10;;;3.70;;
12155;SDS011;6141;49.092;8.516;2023-05-20T09:06:15;5.53;;;3.40;;
12155;SDS011;6141;49.092;8.516;2023-05-20T09:09:06;6.87;;;4.00;;
12155;SDS011;6141;49.092;8.516;2023-05-20T09:11:55;4.13;;;3.80;;
12155;SDS011;6141;49.092;8.516;2023-05-20T09:14:44;4.97;;;3.93;;
12155;SDS011;6141;49.092;8.516;2023-05-20T09:17:34;3.90;;;3.50;;
12155;SDS011;6141;49.092;8.516;2023-05-20T09:20:25;5.03;;;3.63;;
12155;SDS011;6141;49.092;8.516;2023-05-20T09:23:17;5.80;;;3.97;;
12155;SDS011;6141;49.092;8.516;2023-05-20T09:26:07;4.40;;;4.00;;
12155;SDS011;6141;49.092;8.516;2023-05-20T09:28:56;3.97;;;3.67;;
12155;SDS011;6141;49.092;8.516;2023-05-20T09:31:46;4.50;;;4.00;;
12155;SDS011;6141;49.092;8.516;2023-05-20T09:34:36;4.37;;;3.97;;
12155;SDS011;6141;49.092;8.516;2023-05-20T09:37:26;4.53;;;4.03;;
12155;SDS011;6141;49.092;8.516;2023-05-20T09:40:16;5.93;;;4.03;;
12155;SDS011;6141;49.092;8.516;2023-05-20T09:43:07;4.13;;;3.50;;
12155;SDS011;6141;49.092;8.516;2023-05-20T09:45:57;4.60;;;4.20;;
12155;SDS011;6141;49.092;8.516;2023-05-20T09:48:47;4.43;;;4.03;;
12155;SDS011;6141;49.092;8.516;2023-05-20T09:51:36;4.77;;;3.77;;
12155;SDS011;6141;49.092;8.516;2023-05-20T09:54:27;4.10;;;3.63;;
12155;SDS011;6141;49.092;8.516;2023-05-20T09:57:17;3.97;;;3.67;;
12155;SDS011;6141;49.092;8.516;2023-05-20T10:00:06;4.97;;;4.00;;
12155;SDS011;6141;49.092;8.516;2023-05-20T10:03:01;5.17;;;3.40;;
12155;SDS011;6141;49.092;8.516;2023-05-20T10:05:54;4.30;;;3.90;;
12155;SDS011;6141;49.092;8.516;2023-05-20T10:09:10;5.20;;;4.47;;
12155;SDS011;6141;49.092;8.516;2023-05-20T10:12:14;4.20;;;3.90;;
12155;SDS011;6141;49.092;8.516;2023-05-20T10:15:14;5.87;;;3.67;;
12155;SDS011;6141;49.092;8.516;2023-05-20T10:18:07;5.57;;;4.07;;
12155;SDS011;6141;49.092;8.516;2023-05-20T10:21:13;4.37;;;3.97;;
12155;SDS011;6141;49.092;8.516;2023-05-20T10:24:06;4.83;;;3.87;;
12155;SDS011;6141;49.092;8.516;2023-05-20T10:26:57;4.33;;;3.93;;
12155;SDS011;6141;49.092;8.516;2023-05-20T10:29:50;4.77;;;4.10;;
12155;SDS011;6141;49.092;8.516;2023-05-20T10:32:47;6.20;;;4.40;;
12155;SDS011;6141;49.092;8.516;2023-05-20T10:35:45;5.13;;;3.93;;
12155;SDS011;6141;49.092;8.516;2023-05-20T10:38:37;5.17;;;3.70;;
12155;SDS011;6141;49.092;8.516;2023-05-20T10:41:36;4.97;;;3.73;;
12155;SDS011;6141;49.092;8.516;2023-05-20T10:44:25;5.00;;;3.83;;
12155;SDS011;6141;49.092;8.516;2023-05-20T10:47:15;5.47;;;3.63;;
12155;SDS011;6141;49.092;8.516;2023-05-20T10:50:13;6.27;;;3.60;;
12155;SDS011;6141;49.092;8.516;2023-05-20T10:53:15;4.50;;;3.63;;
12155;SDS011;6141;49.092;8.516;2023-05-20T10:56:20;4.40;;;4.00;;
12155;SDS011;6141;49.092;8.516;2023-05-20T10:59:10;4.10;;;3.70;;
12155;SDS011;6141;49.092;8.516;2023-05-20T11:02:00;6.27;;;4.00;;
12155;SDS011;6141;49.092;8.516;2023-05-20T11:04:50;3.77;;;3.47;;
12155;SDS011;6141;49.092;8.516;2023-05-20T11:07:40;4.63;;;3.80;;
12155;SDS011;6141;49.092;8.516;2023-05-20T11:10:29;7.47;;;3.90;;
12155;SDS011;6141;49.092;8.516;2023-05-20T11:13:19;4.20;;;3.77;;
12155;SDS011;6141;49.092;8.516;2023-05-20T11:16:08;6.47;;;4.03;;
12155;SDS011;6141;49.092;8.516;2023-05-20T11:18:57;10.23;;;4.10;;
12155;SDS011;6141;49.092;8.516;2023-05-20T11:21:47;4.03;;;3.63;;
12155;SDS011;6141;49.092;8.516;2023-05-20T11:24:37;4.67;;;4.20;;
12155;SDS011;6141;49.092;8.516;2023-05-20T11:27:27;4.90;;;3.77;;
12155;SDS011;6141;49.092;8.516;2023-05-20T11:30:16;5.70;;;3.83;;
12155;SDS011;6141;49.092;8.516;2023-05-20T11:33:10;4.30;;;3.90;;
12155;SDS011;6141;49.092;8.516;2023-05-20T11:36:00;5.53;;;4.20;;
12155;SDS011;6141;49.092;8.516;2023-05-20T11:39:01;8.03;;;4.20;;
12155;SDS011;6141;49.092;8.516;2023-05-20T11:41:51;4.87;;;4.37;;
12155;SDS011;6141;49.092;8.516;2023-05-20T11:44:42;4.70;;;4.20;;
12155;SDS011;6141;49.092;8.516;2023-05-20T11:47:32;5.40;;;4.17;;
12155;SDS011;6141;49.092;8.516;2023-05-20T11:50:21;4.47;;;4.03;;
12155;SDS011;6141;49.092;8.516;2023-05-20T11:53:13;6.43;;;3.77;;
12155;SDS011;6141;49.092;8.516;2023-05-20T11:56:06;4.57;;;3.77;;
12155;SDS011;6141;49.092;8.516;2023-05-20T11:58:56;4.77;;;4.23;;
12155;SDS011;6141;49.092;8.516;2023-05-20T12:01:45;3.80;;;3.40;;
12155;SDS011;6141;49.092;8.516;2023-05-20T12:04:34;4.13;;;3.70;;
12155;SDS011;6141;49.092;8.516;2023-05-20T12:07:23;4.57;;;3.87;;
12155;SDS011;6141;49.092;8.516;2023-05-20T12:10:12;5.33;;;3.90;;
12155;SDS011;6141;49.092;8.516;2023-05-20T12:13:02;5.77;;;4.23;;
12155;SDS011;6141;49.092;8.516;2023-05-20T12:15:54;4.20;;;3.80;;
12155;SDS011;6141;49.092;8.516;2023-05-20T12:18:43;4.60;;;4.20;;
12155;SDS011;6141;49.092;8.516;2023-05-20T12:21:32;7.23;;;4.47;;
12155;SDS011;6141;49.092;8.516;2023-05-20T12:24:20;4.50;;;4.10;;
12155;SDS011;6141;49.092;8.516;2023-05-20T12:27:09;4.17;;;3.73;;
12155;SDS011;6141;49.092;8.516;2023-05-20T12:29:59;6.83;;;4.03;;
12155;SDS011;6141;49.092;8.516;2023-05-20T12:32:49;4.70;;;4.23;;
12155;SDS011;6141;49.092;8.516;2023-05-20T12:35:39;4.43;;;4.00;;
12155;SDS011;6141;49.092;8.516;2023-05-20T12:38:31;5.37;;;4.07;;
12155;SDS011;6141;49.092;8.516;2023-05-20T12:41:20;4.07;;;3.67;;
12155;SDS011;6141;49.092;8.516;2023-05-20T12:44:09;6.33;;;3.97;;
12155;SDS011;6141;49.092;8.516;2023-05-20T12:46:59;4.50;;;3.90;;
12155;SDS011;6141;49.092;8.516;2023-05-20T12:49:48;4.30;;;3.77;;
12155;SDS011;6141;49.092;8.516;2023-05-20T12:52:36;4.07;;;3.77;;
12155;SDS011;6141;49.092;8.516;2023-05-20T12:55:25;4.67;;;4.23;;
12155;SDS011;6141;49.092;8.516;2023-05-20T12:58:14;4.20;;;3.80;;
12155;SDS011;6141;49.092;8.516;2023-05-20T13:01:03;4.37;;;4.00;;
12155;SDS011;6141;49.092;8.516;2023-05-20T13:03:53;4.70;;;4.30;;
12155;SDS011;6141;49.092;8.516;2023-05-20T13:06:42;5.40;;;4.20;;
12155;SDS011;6141;49.092;8.516;2023-05-20T13:09:31;4.23;;;3.90;;
12155;SDS011;6141;49.092;8.516;2023-05-20T13:12:20;5.13;;;3.57;;
12155;SDS011;6141;49.092;8.516;2023-05-20T13:15:09;4.97;;;4.50;;
12155;SDS011;6141;49.092;8.516;2023-05-20T13:17:58;7.63;;;4.30;;
12155;SDS011;6141;49.092;8.516;2023-05-20T13:20:50;5.80;;;4.10;;
12155;SDS011;6141;49.092;8.516;2023-05-20T13:23:40;5.27;;;3.50;;
12155;SDS011;6141;49.092;8.516;2023-05-20T13:26:32;4.17;;;3.77;;
12155;SDS011;6141;49.092;8.516;2023-05-20T13:29:21;4.37;;;3.93;;
12155;SDS011;6141;49.092;8.516;2023-05-20T13:32:10;5.77;;;3.90;;
12155;SDS011;6141;49.092;8.516;2023-05-20T13:34:59;4.73;;;4.30;;
12155;SDS011;6141;49.092;8.516;2023-05-20T13:37:50;5.37;;;4.57;;
12155;SDS011;6141;49.092;8.516;2023-05-20T13:40:38;4.37;;;3.97;;
12155;SDS011;6141;49.092;8.516;2023-05-20T13:43:29;5.00;;;4.50;;
12155;SDS011;6141;49.092;8.516;2023-05-20T13:46:20;6.63;;;4.43;;
12155;SDS011;6141;49.092;8.516;2023-05-20T13:49:09;4.47;;;4.07;;
12155;SDS011;6141;49.092;8.516;2023-05-20T13:51:58;5.10;;;4.40;;
12155;SDS011;6141;49.092;8.516;2023-05-20T13:54:48;4.53;;;4.13;;
12155;SDS011;6141;49.092;8.516;2023-05-20T13:57:39;4.67;;;4.20;;
12155;SDS011;6141;49.092;8.516;2023-05-20T14:00:29;4.60;;;4.20;;
12155;SDS011;6141;49.092;8.516;2023-05-20T14:03:18;5.97;;;4.50;;
12155;SDS011;6141;49.092;8.516;2023-05-20T14:06:07;5.50;;;4.40;;
12155;SDS011;6141;49.092;8.516;2023-05-20T14:08:56;4.93;;;4.50;;
12155;SDS011;6141;49.092;8.516;2023-05-20T14:11:49;5.60;;;4.13;;
12155;SDS011;6141;49.092;8.516;2023-05-20T14:14:38;5.03;;;4.53;;
12155;SDS011;6141;49.092;8.516;2023-05-20T14:17:27;5.47;;;4.47;;
12155;SDS011;6141;49.092;8.516;2023-05-20T14:20:18;5.60;;;4.80;;
12155;SDS011;6141;49.092;8.516;2023-05-20T14:23:07;5.63;;;4.57;;
12155;SDS011;6141;49.092;8.516;2023-05-20T14:25:56;4.80;;;4.40;;
12155;SDS011;6141;49.092;8.516;2023-05-20T14:28:46;5.47;;;4.40;;
12155;SDS011;6141;49.092;8.516;2023-05-20T14:31:35;4.83;;;4.20;;
12155;SDS011;6141;49.092;8.516;2023-05-20T14:34:27;7.53;;;4.27;;
12155;SDS011;6141;49.092;8.516;2023-05-20T14:37:15;5.43;;;4.47;;
12155;SDS011;6141;49.092;8.516;2023-05-20T14:40:04;6.17;;;4.43;;
12155;SDS011;6141;49.092;8.516;2023-05-20T14:42:55;7.53;;;4.30;;
12155;SDS011;6141;49.092;8.516;2023-05-20T14:45:45;5.00;;;4.50;;
12155;SDS011;6141;49.092;8.516;2023-05-20T14:48:34;5.80;;;4.50;;
12155;SDS011;6141;49.092;8.516;2023-05-20T14:51:23;5.30;;;4.73;;
12155;SDS011;6141;49.092;8.516;2023-05-20T14:54:13;4.87;;;4.47;;
12155;SDS011;6141;49.092;8.516;2023-05-20T14:57:02;5.70;;;4.30;;
12155;SDS011;6141;49.092;8.516;2023-05-20T14:59:52;5.10;;;4.70;;
12155;SDS011;6141;49.092;8.516;2023-05-20T15:02:42;4.93;;;4.50;;
12155;SDS011;6141;49.092;8.516;2023-05-20T15:05:31;5.60;;;4.63;;
12155;SDS011;6141;49.092;8.516;2023-05-20T15:08:20;5.13;;;4.73;;
12155;SDS011;6141;49.092;8.516;2023-05-20T15:11:09;7.83;;;4.93;;
12155;SDS011;6141;49.092;8.516;2023-05-20T15:13:57;5.83;;;4.50;;
12155;SDS011;6141;49.092;8.516;2023-05-20T15:16:46;6.70;;;4.83;;
12155;SDS011;6141;49.092;8.516;2023-05-20T15:19:37;8.80;;;4.90;;
12155;SDS011;6141;49.092;8.516;2023-05-20T15:22:27;4.77;;;4.17;;
12155;SDS011;6141;49.092;8.516;2023-05-20T15:25:16;5.13;;;4.63;;
12155;SDS011;6141;49.092;8.516;2023-05-20T15:28:05;5.63;;;4.90;;
12155;SDS011;6141;49.092;8.516;2023-05-20T15:30:54;5.40;;;4.90;;
12155;SDS011;6141;49.092;8.516;2023-05-20T15:33:43;5.40;;;4.90;;
12155;SDS011;6141;49.092;8.516;2023-05-20T15:36:34;5.40;;;4.90;;
12155;SDS011;6141;49.092;8.516;2023-05-20T15:39:22;8.07;;;5.30;;
12155;SDS011;6141;49.092;8.516;2023-05-20T15:42:12;6.03;;;5.03;;
12155;SDS011;6141;49.092;8.516;2023-05-20T15:45:04;5.80;;;4.40;;
12155;SDS011;6141;49.092;8.516;2023-05-20T15:47:54;5.27;;;4.77;;
12155;SDS011;6141;49.092;8.516;2023-05-20T15:50:43;5.03;;;4.63;;
12155;SDS011;6141;49.092;8.516;2023-05-20T15:53:33;4.83;;;4.37;;
12155;SDS011;6141;49.092;8.516;2023-05-20T15:56:25;5.30;;;4.73;;
12155;SDS011;6141;49.092;8.516;2023-05-20T15:59:13;5.43;;;4.80;;
12155;SDS011;6141;49.092;8.516;2023-05-20T16:02:04;5.07;;;4.57;;
12155;SDS011;6141;49.092;8.516;2023-05-20T16:04:53;5.57;;;4.60;;
12155;SDS011;6141;49.092;8.516;2023-05-20T16:07:42;6.33;;;4.83;;
12155;SDS011;6141;49.092;8.516;2023-05-20T16:10:33;5.57;;;4.90;;
12155;SDS011;6141;49.092;8.516;2023-05-20T16:13:23;6.17;;;4.87;;
12155;SDS011;6141;49.092;8.516;2023-05-20T16:16:12;5.50;;;5.00;;
12155;SDS011;6141;49.092;8.516;2023-05-20T16:19:00;5.93;;;5.27;;
12155;SDS011;6141;49.092;8.516;2023-05-20T16:21:49;6.90;;;5.83;;
12155;SDS011;6141;49.092;8.516;2023-05-20T16:24:38;8.10;;;5.47;;
12155;SDS011;6141;49.092;8.516;2023-05-20T16:27:28;6.87;;;5.33;;
12155;SDS011;6141;49.092;8.516;2023-05-20T16:30:17;5.97;;;4.70;;
12155;SDS011;6141;49.092;8.516;2023-05-20T16:33:06;5.10;;;4.57;;
12155;SDS011;6141;49.092;8.516;2023-05-20T16:35:54;6.43;;;4.77;;
12155;SDS011;6141;49.092;8.516;2023-05-20T16:38:43;4.87;;;4.40;;
12155;SDS011;6141;49.092;8.516;2023-05-20T16:41:33;5.60;;;4.97;;
12155;SDS011;6141;49.092;8.516;2023-05-20T16:44:23;5.20;;;4.57;;
12155;SDS011;6141;49.092;8.516;2023-05-20T16:47:12;5.73;;;5.17;;
12155;SDS011;6141;49.092;8.516;2023-05-20T16:50:01;6.10;;;5.50;;
12155;SDS011;6141;49.092;8.516;2023-05-20T16:52:49;5.80;;;5.30;;
12155;SDS011;6141;49.092;8.516;2023-05-20T16:55:41;5.47;;;4.87;;
12155;SDS011;6141;49.092;8.516;2023-05-20T16:58:30;6.33;;;5.63;;
12155;SDS011;6141;49.092;8.516;2023-05-20T17:01:20;7.27;;;5.13;;
12155;SDS011;6141;49.092;8.516;2023-05-20T17:04:09;5.30;;;4.80;;
12155;SDS011;6141;49.092;8.516;2023-05-20T17:06:58;5.77;;;5.23;;
12155;SDS011;6141;49.092;8.516;2023-05-20T17:09:48;6.90;;;5.03;;
12155;SDS011;6141;49.092;8.516;2023-05-20T17:12:37;5.60;;;5.10;;
12155;SDS011;6141;49.092;8.516;2023-05-20T17:15:25;6.50;;;5.30;;
12155;SDS011;6141;49.092;8.516;2023-05-20T17:18:15;5.93;;;5.37;;
12155;SDS011;6141;49.092;8.516;2023-05-20T17:21:04;6.43;;;5.77;;